Time;durP1;ratioP1;P1;durP2;ratioP2;P2;SDS_P1;SDS_P2;PMS_P1;PMS_P2;Temp;Humidity;BMP_temperature;BMP_pressure;BME280_temperature;BME280_humidity;BME280_pressure;Samples;Min_cycle;Max_cycle;Signal;HPM_P1;HPM_P2
2022/05/02 00:01:14;;;;;;;3.00;1.65;;;;;;;;;;4956673;28;20069;-80
2022/05/02 00:03:39;;;;;;;2.20;1.70;;;;;;;;;;4973180;28;20043;-80
2022/05/02 00:06:07;;;;;;;1.92;1.80;;;;;;;;;;4940833;28;20042;-80
2022/05/02 00:08:32;;;;;;;2.15;1.95;;;;;;;;;;4957001;28;20161;-80
2022/05/02 00:10:57;;;;;;;2.20;1.60;;;;;;;;;;4972384;28;20077;-80
2022/05/02 00:13:23;;;;;;;2.72;1.70;;;;;;;;;;4973979;28;20465;-81
2022/05/02 00:15:48;;;;;;;2.70;2.00;;;;;;;;;;4973614;28;20067;-80
2022/05/02 00:18:14;;;;;;;2.30;1.90;;;;;;;;;;4973708;28;20033;-81
2022/05/02 00:20:40;;;;;;;2.00;1.80;;;;;;;;;;4956539;28;20554;-80
2022/05/02 00:23:09;;;;;;;1.73;1.63;;;;;;;;;;4956424;28;20085;-80
2022/05/02 00:25:35;;;;;;;2.70;2.00;;;;;;;;;;4956142;28;20093;-81
2022/05/02 00:28:01;;;;;;;2.88;2.28;;;;;;;;;;4940393;28;20027;-80
2022/05/02 00:30:28;;;;;;;2.00;1.73;;;;;;;;;;4955998;28;20045;-79
2022/05/02 00:32:54;;;;;;;3.70;2.10;;;;;;;;;;4955991;28;20054;-80
2022/05/02 00:35:20;;;;;;;3.28;1.67;;;;;;;;;;4956077;28;20034;-80
2022/05/02 00:37:45;;;;;;;2.08;1.70;;;;;;;;;;4956041;28;20057;-79
2022/05/02 00:40:13;;;;;;;2.17;1.70;;;;;;;;;;4939909;28;20027;-80
2022/05/02 00:42:39;;;;;;;2.20;1.65;;;;;;;;;;4973714;28;20035;-79
2022/05/02 00:45:07;;;;;;;2.15;1.80;;;;;;;;;;4955848;28;20025;-79
2022/05/02 00:47:32;;;;;;;2.00;1.80;;;;;;;;;;4955849;28;20054;-80
2022/05/02 00:49:58;;;;;;;3.45;1.60;;;;;;;;;;4956029;28;20415;-79
2022/05/02 00:52:23;;;;;;;3.00;1.70;;;;;;;;;;4955951;28;20097;-80
2022/05/02 00:54:48;;;;;;;1.65;1.55;;;;;;;;;;4955514;28;20046;-80
2022/05/02 00:57:16;;;;;;;2.72;1.92;;;;;;;;;;4955816;28;20113;-79
2022/05/02 00:59:42;;;;;;;1.98;1.73;;;;;;;;;;4955740;28;20031;-79
2022/05/02 01:02:10;;;;;;;3.08;2.05;;;;;;;;;;4955923;28;20489;-79
2022/05/02 01:04:36;;;;;;;2.00;1.80;;;;;;;;;;4973091;28;20027;-80
2022/05/02 01:07:20;;;;;;;3.38;1.70;;;;;;;;;;4955053;28;20027;-79
2022/05/02 01:09:47;;;;;;;1.90;1.75;;;;;;;;;;4971574;28;20031;-80
2022/05/02 01:12:19;;;;;;;2.10;1.90;;;;;;;;;;4955905;28;20034;-79
2022/05/02 01:14:47;;;;;;;1.80;1.70;;;;;;;;;;4955762;28;20030;-79
2022/05/02 01:17:13;;;;;;;2.45;1.70;;;;;;;;;;4971816;28;20035;-81
2022/05/02 01:19:38;;;;;;;4.40;1.83;;;;;;;;;;4955485;28;20244;-81
2022/05/02 01:22:05;;;;;;;3.05;1.75;;;;;;;;;;4955648;28;20102;-81
2022/05/02 01:24:35;;;;;;;1.48;1.38;;;;;;;;;;4955329;28;20030;-81
2022/05/02 01:27:01;;;;;;;1.70;1.60;;;;;;;;;;4955455;28;20027;-81
2022/05/02 01:29:27;;;;;;;3.08;1.70;;;;;;;;;;4955559;28;20093;-79
2022/05/02 01:31:54;;;;;;;1.80;1.50;;;;;;;;;;4971515;28;20039;-81
2022/05/02 01:34:19;;;;;;;1.52;1.42;;;;;;;;;;4955721;28;20066;-80
2022/05/02 01:36:45;;;;;;;2.35;1.50;;;;;;;;;;4955302;28;20482;-80
2022/05/02 01:39:10;;;;;;;1.60;1.50;;;;;;;;;;4939390;28;20042;-80
2022/05/02 01:41:35;;;;;;;1.88;1.77;;;;;;;;;;4972748;28;20031;-79
2022/05/02 01:44:01;;;;;;;2.45;1.70;;;;;;;;;;4955536;28;20050;-79
2022/05/02 01:46:26;;;;;;;2.00;1.80;;;;;;;;;;4939392;28;20054;-80
2022/05/02 01:48:52;;;;;;;2.20;1.95;;;;;;;;;;4971443;28;20050;-80
2022/05/02 01:51:17;;;;;;;1.77;1.65;;;;;;;;;;4955225;28;20089;-80
2022/05/02 01:53:43;;;;;;;3.50;1.77;;;;;;;;;;4955158;28;20031;-80
2022/05/02 01:56:08;;;;;;;1.58;1.48;;;;;;;;;;4972281;28;20074;-80
2022/05/02 01:58:33;;;;;;;1.83;1.42;;;;;;;;;;4923285;28;20445;-80
2022/05/02 02:00:59;;;;;;;1.60;1.50;;;;;;;;;;4972407;28;20110;-80
2022/05/02 02:03:24;;;;;;;2.03;1.73;;;;;;;;;;4954980;28;20108;-80
2022/05/02 02:05:50;;;;;;;1.70;1.45;;;;;;;;;;4955056;28;20125;-80
2022/05/02 02:08:27;;;;;;;2.55;1.60;;;;;;;;;;4971098;28;20386;-81
2022/05/02 02:10:54;;;;;;;2.30;1.50;;;;;;;;;;4955388;28;20109;-81
2022/05/02 02:13:20;;;;;;;2.08;1.30;;;;;;;;;;4972432;28;20105;-81
2022/05/02 02:15:46;;;;;;;2.50;1.80;;;;;;;;;;4954772;28;20161;-80
2022/05/02 02:18:12;;;;;;;1.60;1.50;;;;;;;;;;4973097;28;20042;-80
2022/05/02 02:20:38;;;;;;;4.10;1.45;;;;;;;;;;4975884;28;20058;-80
2022/05/02 02:23:04;;;;;;;1.58;1.48;;;;;;;;;;4958780;28;20489;-80
2022/05/02 02:25:31;;;;;;;2.28;1.60;;;;;;;;;;4958221;28;20034;-80
2022/05/02 02:27:56;;;;;;;1.90;1.70;;;;;;;;;;4958469;28;20031;-82
2022/05/02 02:30:22;;;;;;;1.88;1.63;;;;;;;;;;4975853;28;20567;-80
2022/05/02 02:32:47;;;;;;;1.83;1.73;;;;;;;;;;4974987;28;20100;-80
2022/05/02 02:35:13;;;;;;;2.47;2.08;;;;;;;;;;4958409;28;20096;-81
2022/05/02 02:37:39;;;;;;;2.03;1.65;;;;;;;;;;4942326;28;20031;-83
2022/05/02 02:40:05;;;;;;;1.95;1.60;;;;;;;;;;4975813;28;20093;-79
2022/05/02 02:42:30;;;;;;;2.28;1.80;;;;;;;;;;4975785;28;20110;-80
2022/05/02 02:44:56;;;;;;;1.98;1.58;;;;;;;;;;4975596;28;20445;-79
2022/05/02 02:47:21;;;;;;;2.10;1.60;;;;;;;;;;4958114;28;20038;-80
2022/05/02 02:49:47;;;;;;;2.13;1.58;;;;;;;;;;4975210;28;20041;-79
2022/05/02 02:52:12;;;;;;;3.95;1.60;;;;;;;;;;4958225;28;20030;-80
2022/05/02 02:54:37;;;;;;;1.67;1.58;;;;;;;;;;4973653;28;20365;-80
2022/05/02 02:57:03;;;;;;;1.80;1.70;;;;;;;;;;4974600;28;20077;-80
2022/05/02 02:59:28;;;;;;;1.75;1.50;;;;;;;;;;4957058;28;20038;-80
2022/05/02 03:01:56;;;;;;;1.65;1.50;;;;;;;;;;4975057;28;20097;-79
2022/05/02 03:07:05;;;;;;;2.05;1.58;;;;;;;;;;4960273;28;20110;-78
2022/05/02 03:09:31;;;;;;;3.03;1.60;;;;;;;;;;4925971;28;20121;-78
2022/05/02 03:11:57;;;;;;;1.50;1.40;;;;;;;;;;4957465;28;20035;-79
2022/05/02 03:14:23;;;;;;;2.80;1.35;;;;;;;;;;4957291;28;20038;-80
2022/05/02 03:16:48;;;;;;;1.60;1.50;;;;;;;;;;4957481;28;20113;-80
2022/05/02 03:19:14;;;;;;;1.67;1.50;;;;;;;;;;4941650;28;20042;-80
2022/05/02 03:21:39;;;;;;;3.35;1.90;;;;;;;;;;4974867;28;20031;-80
2022/05/02 03:24:05;;;;;;;3.10;1.80;;;;;;;;;;4957602;28;20540;-80
2022/05/02 03:26:31;;;;;;;2.17;1.75;;;;;;;;;;4941158;28;20038;-79
2022/05/02 03:28:56;;;;;;;3.08;1.85;;;;;;;;;;4941228;28;20039;-80
2022/05/02 03:31:21;;;;;;;4.80;1.67;;;;;;;;;;4974382;28;20037;-81
2022/05/02 03:33:47;;;;;;;2.00;1.80;;;;;;;;;;4974626;28;20477;-80
2022/05/02 03:36:12;;;;;;;1.85;1.75;;;;;;;;;;4974490;28;20423;-80
2022/05/02 03:38:37;;;;;;;1.95;1.70;;;;;;;;;;4957293;28;20166;-81
2022/05/02 03:41:03;;;;;;;2.08;1.40;;;;;;;;;;4957454;28;20509;-81
2022/05/02 03:43:28;;;;;;;1.73;1.60;;;;;;;;;;4974707;28;20433;-81
2022/05/02 03:45:54;;;;;;;1.58;1.48;;;;;;;;;;4972937;28;20038;-81
2022/05/02 03:48:19;;;;;;;1.83;1.42;;;;;;;;;;4974370;28;20030;-80
2022/05/02 03:50:45;;;;;;;1.98;1.80;;;;;;;;;;4941086;28;20043;-81
2022/05/02 03:53:10;;;;;;;1.90;1.63;;;;;;;;;;4974171;28;20026;-80
2022/05/02 03:55:36;;;;;;;1.52;1.42;;;;;;;;;;4947516;29;20047;-80
2022/05/02 03:58:02;;;;;;;1.83;1.73;;;;;;;;;;4954974;29;20031;-80
2022/05/02 04:00:28;;;;;;;1.63;1.52;;;;;;;;;;4922522;29;20050;-81
2022/05/02 04:02:53;;;;;;;1.75;1.63;;;;;;;;;;4921982;29;20043;-79
2022/05/02 04:05:19;;;;;;;2.47;1.80;;;;;;;;;;4954535;29;20031;-81
2022/05/02 04:07:44;;;;;;;2.13;1.92;;;;;;;;;;4921761;29;20023;-80
2022/05/02 04:10:09;;;;;;;2.25;1.65;;;;;;;;;;4937181;29;20470;-80
2022/05/02 04:12:39;;;;;;;2.08;1.88;;;;;;;;;;4937484;29;20031;-79
2022/05/02 04:15:06;;;;;;;1.65;1.55;;;;;;;;;;4953359;29;20042;-81
2022/05/02 04:17:31;;;;;;;1.80;1.70;;;;;;;;;;4954825;29;20141;-81
2022/05/02 04:19:56;;;;;;;2.20;1.58;;;;;;;;;;4953745;29;20083;-81
2022/05/02 04:22:22;;;;;;;1.65;1.55;;;;;;;;;;4954692;29;20070;-80
2022/05/02 04:24:47;;;;;;;2.38;1.60;;;;;;;;;;4937090;29;20494;-80
2022/05/02 04:27:12;;;;;;;1.67;1.58;;;;;;;;;;4937336;29;20127;-80
2022/05/02 04:29:38;;;;;;;7.65;2.20;;;;;;;;;;4954394;29;20046;-80
2022/05/02 04:32:04;;;;;;;1.90;1.80;;;;;;;;;;4954795;29;20035;-79
2022/05/02 04:34:29;;;;;;;2.05;1.70;;;;;;;;;;4954710;29;20035;-79
2022/05/02 04:36:54;;;;;;;2.88;1.85;;;;;;;;;;4938183;29;20031;-79
2022/05/02 04:39:20;;;;;;;1.73;1.52;;;;;;;;;;4954889;29;20043;-84
2022/05/02 04:41:45;;;;;;;9.05;3.42;;;;;;;;;;4954201;28;20035;-79
2022/05/02 04:44:11;;;;;;;26.92;6.25;;;;;;;;;;4954257;29;20047;-85
2022/05/02 04:46:36;;;;;;;26.75;7.32;;;;;;;;;;4938127;29;20047;-82
2022/05/02 04:49:02;;;;;;;30.20;6.57;;;;;;;;;;4922095;29;20050;-83
2022/05/02 04:51:27;;;;;;;23.98;5.65;;;;;;;;;;4937151;29;20045;-84
2022/05/02 04:53:54;;;;;;;15.52;5.57;;;;;;;;;;4936816;29;20035;-84
2022/05/02 04:56:19;;;;;;;16.83;6.00;;;;;;;;;;4968754;28;20051;-84
2022/05/02 04:58:45;;;;;;;17.42;6.05;;;;;;;;;;4973082;28;20054;-83
2022/05/02 05:01:11;;;;;;;19.42;5.43;;;;;;;;;;4956831;28;20077;-84
2022/05/02 05:03:36;;;;;;;21.45;4.65;;;;;;;;;;4975781;28;20109;-84
2022/05/02 05:06:02;;;;;;;11.32;4.22;;;;;;;;;;4958557;28;20133;-85
2022/05/02 05:08:28;;;;;;;12.35;3.90;;;;;;;;;;4942524;28;20066;-84
2022/05/02 05:11:00;;;;;;;13.43;4.50;;;;;;;;;;4976766;28;20027;-84
2022/05/02 05:13:36;;;;;;;16.50;4.53;;;;;;;;;;4959371;28;20035;-83
2022/05/02 05:16:27;;;;;;;9.40;3.40;;;;;;;;;;4957933;28;20450;-84
2022/05/02 05:19:03;;;;;;;14.15;4.10;;;;;;;;;;4975707;28;20480;-84
2022/05/02 05:21:40;;;;;;;11.73;3.97;;;;;;;;;;4976639;28;20113;-83
2022/05/02 05:24:09;;;;;;;13.32;3.72;;;;;;;;;;4958629;28;20315;-84
2022/05/02 05:26:59;;;;;;;6.57;3.17;;;;;;;;;;4958510;28;20381;-84
2022/05/02 05:29:56;;;;;;;7.38;3.33;;;;;;;;;;4957900;28;20030;-84
2022/05/02 05:32:40;;;;;;;6.85;3.20;;;;;;;;;;4937995;29;20023;-84
2022/05/02 05:35:05;;;;;;;;;;;;;;;;;;4953674;29;20043;-82
2022/05/02 05:37:56;;;;;;;7.53;2.85;;;;;;;;;;4953646;28;19981;-79
2022/05/02 05:40:43;;;;;;;7.63;2.60;;;;;;;;;;4972487;28;20061;-81
2022/05/02 05:43:13;;;;;;;6.03;2.65;;;;;;;;;;4940214;28;20031;-78
2022/05/02 05:46:00;;;;;;;9.35;2.97;;;;;;;;;;4951477;29;20078;-78
2022/05/02 05:49:04;;;;;;;4.07;2.50;;;;;;;;;;4952729;29;20046;-79
2022/05/02 05:51:40;;;;;;;5.22;2.50;;;;;;;;;;4953024;28;20023;-82
2022/05/02 05:54:34;;;;;;;5.90;2.80;;;;;;;;;;4956885;28;20039;-81
2022/05/02 05:57:24;;;;;;;7.25;2.35;;;;;;;;;;4955467;29;20058;-82
2022/05/02 05:59:52;;;;;;;7.10;2.53;;;;;;;;;;4958736;29;20035;-84
2022/05/02 06:02:19;;;;;;;7.43;2.45;;;;;;;;;;4958502;29;20031;-85
2022/05/02 06:04:49;;;;;;;11.93;2.65;;;;;;;;;;4959431;29;20039;-84
2022/05/02 06:07:18;;;;;;;14.38;2.67;;;;;;;;;;4959881;28;20027;-85
2022/05/02 06:09:44;;;;;;;4.47;2.20;;;;;;;;;;4958181;29;20166;-83
2022/05/02 06:12:14;;;;;;;6.15;2.63;;;;;;;;;;4942787;29;20490;-83
2022/05/02 06:20:12;;;;;;;12.25;2.90;;;;;;;;;;4958411;29;20038;-86
2022/05/02 06:22:41;;;;;;;9.00;3.22;;;;;;;;;;4959712;29;20442;-86
2022/05/02 06:25:07;;;;;;;11.25;3.35;;;;;;;;;;4942528;29;20019;-87
2022/05/02 06:27:33;;;;;;;10.07;2.95;;;;;;;;;;4942336;29;20081;-86
2022/05/02 06:30:02;;;;;;;13.50;3.15;;;;;;;;;;4959369;29;20033;-87
2022/05/02 06:32:28;;;;;;;13.95;4.10;;;;;;;;;;4959308;28;20027;-88
2022/05/02 06:34:54;;;;;;;13.77;3.13;;;;;;;;;;4959138;29;20046;-88
2022/05/02 06:37:25;;;;;;;17.02;2.97;;;;;;;;;;4959375;29;20035;-84
2022/05/02 06:40:01;;;;;;;13.60;3.63;;;;;;;;;;4945089;29;20122;-90
2022/05/02 06:42:50;;;;;;;15.65;2.90;;;;;;;;;;4949088;29;20054;-89
2022/05/02 06:45:40;;;;;;;25.23;2.90;;;;;;;;;;4961692;29;20451;-89
2022/05/02 06:48:11;;;;;;;9.75;2.70;;;;;;;;;;4959829;29;20063;-86
2022/05/02 06:50:39;;;;;;;7.90;2.47;;;;;;;;;;4957322;29;20070;-89
2022/05/02 06:53:23;;;;;;;5.47;2.58;;;;;;;;;;4956942;29;20027;-89
2022/05/02 06:56:15;;;;;;;3.92;2.47;;;;;;;;;;4958819;28;20062;-88
2022/05/02 06:58:57;;;;;;;7.07;2.63;;;;;;;;;;4958140;29;20031;-83
2022/05/02 07:01:58;;;;;;;7.40;2.65;;;;;;;;;;4938980;29;20086;-88
2022/05/02 07:04:39;;;;;;;10.57;2.63;;;;;;;;;;4944518;28;20152;-84
2022/05/02 07:07:33;;;;;;;5.55;2.42;;;;;;;;;;4955294;29;20091;-87
2022/05/02 07:10:14;;;;;;;6.78;3.00;;;;;;;;;;4954958;29;20031;-87
2022/05/02 07:13:00;;;;;;;7.93;2.67;;;;;;;;;;4955009;29;20027;-87
2022/05/02 07:15:55;;;;;;;5.70;2.55;;;;;;;;;;4954878;29;20058;-88
2022/05/02 07:18:45;;;;;;;11.30;2.50;;;;;;;;;;4924031;29;20070;-88
2022/05/02 07:21:26;;;;;;;6.50;2.70;;;;;;;;;;4941137;29;20033;-86
2022/05/02 07:24:14;;;;;;;6.78;3.10;;;;;;;;;;4958194;29;20478;-88
2022/05/02 07:26:41;;;;;;;12.00;3.42;;;;;;;;;;4940432;29;20098;-86
2022/05/02 07:29:08;;;;;;;8.55;3.20;;;;;;;;;;4955839;29;20497;-84
2022/05/02 07:31:34;;;;;;;9.25;3.63;;;;;;;;;;4956133;29;20027;-84
2022/05/02 07:34:01;;;;;;;14.23;5.10;;;;;;;;;;4939262;29;20035;-86
2022/05/02 07:36:27;;;;;;;16.33;4.53;;;;;;;;;;4955676;29;20082;-87
2022/05/02 07:38:54;;;;;;;13.68;4.07;;;;;;;;;;4955112;29;20035;-88
2022/05/02 07:41:25;;;;;;;5.75;3.55;;;;;;;;;;4955796;28;20030;-90
2022/05/02 07:44:06;;;;;;;12.85;4.25;;;;;;;;;;4954774;29;20122;-86
2022/05/02 07:46:35;;;;;;;12.18;3.35;;;;;;;;;;4955430;29;20122;-82
2022/05/02 07:49:02;;;;;;;11.60;3.03;;;;;;;;;;4938774;29;20453;-82
2022/05/02 07:51:29;;;;;;;11.07;3.40;;;;;;;;;;4956343;29;20061;-84
2022/05/02 07:53:56;;;;;;;11.98;2.97;;;;;;;;;;4955286;29;20035;-85
2022/05/02 07:56:26;;;;;;;7.10;2.55;;;;;;;;;;4956260;29;20055;-88
2022/05/02 07:58:54;;;;;;;9.73;3.00;;;;;;;;;;4960796;28;20027;-86
2022/05/02 08:01:20;;;;;;;14.05;3.55;;;;;;;;;;4956315;29;20166;-84
2022/05/02 08:03:46;;;;;;;10.43;2.97;;;;;;;;;;4957467;29;20463;-85
2022/05/02 08:06:24;;;;;;;18.73;3.25;;;;;;;;;;4939429;29;20042;-86
2022/05/02 08:09:14;;;;;;;10.23;2.90;;;;;;;;;;4955112;29;20023;-83
2022/05/02 08:12:29;;;;;;;8.73;3.15;;;;;;;;;;4955593;29;20122;-86
2022/05/02 08:15:08;;;;;;;7.85;2.83;;;;;;;;;;4934218;29;20042;-84
2022/05/02 08:17:40;;;;;;;9.27;3.47;;;;;;;;;;4933930;29;20078;-83
2022/05/02 08:20:15;;;;;;;5.40;3.28;;;;;;;;;;4934392;29;20047;-84
2022/05/02 08:28:36;;;;;;;9.25;3.15;;;;;;;;;;4920310;29;20047;-84
2022/05/02 08:31:08;;;;;;;9.57;3.03;;;;;;;;;;4917957;29;20039;-84
2022/05/02 08:33:35;;;;;;;15.30;3.05;;;;;;;;;;4918613;29;20493;-84
2022/05/02 08:36:05;;;;;;;9.55;3.63;;;;;;;;;;4918159;29;20035;-83
2022/05/02 08:38:44;;;;;;;5.72;3.35;;;;;;;;;;4918493;29;20036;-83
2022/05/02 08:41:25;;;;;;;13.27;3.00;;;;;;;;;;4917401;29;20028;-82
2022/05/02 08:44:19;;;;;;;9.52;2.85;;;;;;;;;;4933796;29;20099;-82
2022/05/02 08:46:47;;;;;;;12.05;3.45;;;;;;;;;;4932827;29;20027;-83
2022/05/02 08:49:35;;;;;;;9.25;3.65;;;;;;;;;;4958986;28;20055;-82
2022/05/02 08:52:37;;;;;;;4.47;2.72;;;;;;;;;;4953585;29;20031;-91
2022/05/02 08:55:30;;;;;;;9.88;2.88;;;;;;;;;;4953261;29;20030;-82
2022/05/02 08:58:37;;;;;;;12.33;3.10;;;;;;;;;;4954528;29;20066;-83
2022/05/02 09:01:23;;;;;;;7.18;2.83;;;;;;;;;;4932788;29;20043;-82
2022/05/02 09:04:10;;;;;;;10.85;2.72;;;;;;;;;;4933415;29;20103;-83
2022/05/02 09:07:06;;;;;;;10.07;2.60;;;;;;;;;;4932920;29;20386;-82
2022/05/02 09:09:48;;;;;;;6.10;2.40;;;;;;;;;;4917166;29;20027;-82
2022/05/02 09:12:29;;;;;;;6.18;2.67;;;;;;;;;;4933219;29;20031;-84
2022/05/02 09:15:01;;;;;;;9.43;2.58;;;;;;;;;;4932628;29;20072;-81
2022/05/02 09:17:51;;;;;;;6.28;2.30;;;;;;;;;;4917712;29;20039;-83
2022/05/02 09:20:40;;;;;;;5.53;2.30;;;;;;;;;;4934170;29;20098;-83
2022/05/02 09:23:35;;;;;;;8.10;3.00;;;;;;;;;;4932725;29;20126;-82
2022/05/02 09:26:06;;;;;;;4.82;2.33;;;;;;;;;;4932604;29;20132;-83
2022/05/02 09:28:50;;;;;;;5.47;2.75;;;;;;;;;;4934016;28;20036;-83
2022/05/02 09:31:17;;;;;;;;;;;;;;;;;;4921011;29;20043;-83
2022/05/02 09:33:47;;;;;;;2.75;2.08;;;;;;;;;;4936751;29;19946;-83
2022/05/02 09:36:27;;;;;;;3.10;2.30;;;;;;;;;;4940453;29;20031;-84
2022/05/02 09:39:15;;;;;;;2.92;1.80;;;;;;;;;;4956329;29;20031;-84
2022/05/02 09:42:14;;;;;;;3.65;2.08;;;;;;;;;;4956420;28;20050;-83
2022/05/02 09:51:44;;;;;;;5.13;2.00;;;;;;;;;;4957918;29;20042;-83
2022/05/02 09:57:21;;;;;;;2.08;1.77;;;;;;;;;;4957687;29;20117;-85
2022/05/02 10:02:47;;;;;;;2.65;1.90;;;;;;;;;;4957789;29;20046;-85
2022/05/02 10:05:46;;;;;;;5.40;2.42;;;;;;;;;;4956056;29;20394;-83
2022/05/02 10:08:37;;;;;;;4.07;1.88;;;;;;;;;;4934835;29;20166;-84
2022/05/02 10:11:13;;;;;;;5.25;2.40;;;;;;;;;;4955604;29;20141;-85
2022/05/02 10:13:54;;;;;;;2.90;1.95;;;;;;;;;;4955878;28;20031;-85
2022/05/02 10:16:40;;;;;;;4.45;1.83;;;;;;;;;;4957301;29;20038;-84
2022/05/02 10:19:11;;;;;;;2.38;1.60;;;;;;;;;;4940143;29;20129;-84
2022/05/02 10:21:58;;;;;;;1.83;1.73;;;;;;;;;;4957272;29;20027;-84
2022/05/02 10:24:48;;;;;;;2.22;1.88;;;;;;;;;;4957261;29;20067;-84
2022/05/02 10:27:27;;;;;;;5.65;2.28;;;;;;;;;;4956618;29;20019;-84
2022/05/02 10:30:11;;;;;;;3.88;2.20;;;;;;;;;;4962997;29;20458;-83
2022/05/02 10:32:52;;;;;;;3.67;1.90;;;;;;;;;;4966729;29;20062;-83
2022/05/02 10:35:21;;;;;;;5.60;2.00;;;;;;;;;;4958074;29;20027;-82
2022/05/02 10:38:00;;;;;;;2.47;2.10;;;;;;;;;;4958095;29;20077;-83
2022/05/02 10:40:40;;;;;;;3.10;2.10;;;;;;;;;;4939222;29;20102;-82
2022/05/02 10:43:08;;;;;;;5.85;2.42;;;;;;;;;;4940080;29;20023;-83
2022/05/02 10:45:36;;;;;;;5.70;2.20;;;;;;;;;;4955711;29;20021;-83
2022/05/02 10:48:11;;;;;;;3.95;2.35;;;;;;;;;;4955577;29;20031;-83
2022/05/02 10:50:37;;;;;;;2.92;2.13;;;;;;;;;;4956459;29;20024;-83
2022/05/02 10:53:24;;;;;;;5.07;2.25;;;;;;;;;;4939430;29;20078;-82
2022/05/02 10:55:55;;;;;;;3.80;1.83;;;;;;;;;;4956491;28;20032;-83
2022/05/02 10:58:22;;;;;;;4.30;2.05;;;;;;;;;;4957256;29;20429;-83
2022/05/02 11:01:11;;;;;;;2.97;2.10;;;;;;;;;;4956381;29;20104;-82
2022/05/02 11:03:46;;;;;;;7.38;2.25;;;;;;;;;;4938901;29;20057;-83
2022/05/02 11:06:32;;;;;;;4.82;2.03;;;;;;;;;;4957368;29;20050;-84
2022/05/02 11:09:01;;;;;;;3.25;1.92;;;;;;;;;;4955881;29;20023;-83
2022/05/02 11:11:51;;;;;;;2.25;2.05;;;;;;;;;;4955638;29;20023;-82
2022/05/02 11:14:30;;;;;;;5.38;2.58;;;;;;;;;;4956007;29;20094;-83
2022/05/02 11:17:21;;;;;;;2.80;1.88;;;;;;;;;;4955905;28;20035;-83
2022/05/02 11:22:41;;;;;;;4.87;2.27;;;;;;;;;;4957234;29;20171;-82
2022/05/02 11:25:27;;;;;;;4.97;2.08;;;;;;;;;;4956866;29;20344;-83
2022/05/02 11:28:14;;;;;;;5.07;2.05;;;;;;;;;;4954846;29;20442;-82
2022/05/02 11:30:47;;;;;;;3.75;1.90;;;;;;;;;;4955826;29;20050;-81
2022/05/02 11:33:40;;;;;;;3.80;2.35;;;;;;;;;;4939040;29;20104;-83
2022/05/02 11:36:10;;;;;;;5.15;1.80;;;;;;;;;;4954469;29;20039;-83
2022/05/02 11:38:56;;;;;;;5.55;2.38;;;;;;;;;;4970611;28;20493;-83
2022/05/02 11:41:23;;;;;;;4.07;1.85;;;;;;;;;;4954546;28;20395;-83
2022/05/02 11:43:49;;;;;;;3.45;2.03;;;;;;;;;;4954549;29;20035;-85
2022/05/02 11:46:23;;;;;;;4.47;2.35;;;;;;;;;;4954343;29;20038;-85
2022/05/02 11:49:00;;;;;;;3.97;2.08;;;;;;;;;;4954299;28;20038;-85
2022/05/02 11:51:42;;;;;;;3.90;2.00;;;;;;;;;;4953442;28;20024;-85
2022/05/02 11:54:27;;;;;;;5.50;2.10;;;;;;;;;;4938301;29;20055;-85
2022/05/02 11:57:01;;;;;;;3.33;1.90;;;;;;;;;;4954994;29;20054;-86
2022/05/02 11:59:34;;;;;;;4.45;2.00;;;;;;;;;;4937724;29;20078;-85
2022/05/02 12:02:03;;;;;;;2.35;1.90;;;;;;;;;;4953710;28;20031;-83
2022/05/02 12:04:31;;;;;;;3.78;1.77;;;;;;;;;;4938113;29;20316;-84
2022/05/02 12:07:05;;;;;;;4.18;2.00;;;;;;;;;;4938079;29;20031;-84
2022/05/02 12:09:32;;;;;;;4.93;2.17;;;;;;;;;;4953887;28;20103;-83
2022/05/02 12:11:59;;;;;;;4.38;1.65;;;;;;;;;;4954642;29;20078;-83
2022/05/02 12:14:25;;;;;;;2.50;1.88;;;;;;;;;;4954807;28;20130;-85
2022/05/02 12:17:03;;;;;;;2.60;1.95;;;;;;;;;;4955271;28;20042;-84
2022/05/02 12:19:30;;;;;;;3.42;1.75;;;;;;;;;;4956093;29;20035;-84
2022/05/02 12:21:57;;;;;;;2.05;1.77;;;;;;;;;;4955444;29;20031;-83
2022/05/02 12:24:33;;;;;;;2.40;1.73;;;;;;;;;;4953506;29;20035;-83
2022/05/02 12:27:00;;;;;;;3.65;1.90;;;;;;;;;;4953154;29;20024;-84
2022/05/02 12:29:27;;;;;;;3.70;1.73;;;;;;;;;;4953472;29;20026;-83
2022/05/02 12:32:03;;;;;;;2.40;1.50;;;;;;;;;;4937402;29;20458;-84
2022/05/02 12:34:50;;;;;;;3.42;1.60;;;;;;;;;;4954750;29;20030;-84
2022/05/02 12:37:24;;;;;;;2.80;1.50;;;;;;;;;;4938079;29;20031;-84
2022/05/02 12:39:51;;;;;;;1.60;1.50;;;;;;;;;;4954498;29;20047;-83
2022/05/02 12:42:18;;;;;;;1.77;1.58;;;;;;;;;;4953114;28;20126;-83
2022/05/02 12:45:02;;;;;;;1.88;1.48;;;;;;;;;;4954205;29;20545;-84
2022/05/02 12:47:47;;;;;;;1.95;1.45;;;;;;;;;;4953325;29;20390;-84
2022/05/02 12:50:21;;;;;;;2.40;1.60;;;;;;;;;;4954477;28;20478;-84
2022/05/02 12:52:55;;;;;;;1.60;1.50;;;;;;;;;;4954411;29;20053;-85
2022/05/02 12:55:22;;;;;;;2.63;1.48;;;;;;;;;;4952784;29;20041;-85
2022/05/02 13:00:40;;;;;;;2.42;1.50;;;;;;;;;;4939804;29;20104;-85
2022/05/02 13:03:18;;;;;;;2.13;1.30;;;;;;;;;;4952209;28;20111;-85
2022/05/02 13:06:06;;;;;;;2.03;1.55;;;;;;;;;;4952494;29;20027;-84
2022/05/02 13:08:36;;;;;;;2.35;1.58;;;;;;;;;;4953037;29;20035;-84
2022/05/02 13:11:06;;;;;;;2.10;1.50;;;;;;;;;;4952722;29;20027;-84
2022/05/02 13:13:45;;;;;;;1.33;1.23;;;;;;;;;;4953801;29;20030;-85
2022/05/02 13:16:26;;;;;;;1.60;1.50;;;;;;;;;;4952960;28;20133;-85
2022/05/02 13:18:52;;;;;;;1.70;1.30;;;;;;;;;;4953156;28;20427;-84
2022/05/02 13:21:19;;;;;;;2.55;1.40;;;;;;;;;;4969372;28;20035;-83
2022/05/02 13:23:44;;;;;;;2.55;1.90;;;;;;;;;;4968747;28;20031;-82
2022/05/02 13:26:20;;;;;;;2.33;1.70;;;;;;;;;;4954650;29;20390;-84
2022/05/02 13:29:03;;;;;;;1.90;1.70;;;;;;;;;;4955005;29;20058;-83
2022/05/02 13:32:02;;;;;;;1.83;1.50;;;;;;;;;;4954052;29;20031;-83
2022/05/02 13:34:31;;;;;;;8.00;2.08;;;;;;;;;;4952692;29;20426;-83
2022/05/02 13:37:35;;;;;;;3.03;1.80;;;;;;;;;;4937117;29;20039;-82
2022/05/02 13:40:16;;;;;;;2.88;1.75;;;;;;;;;;4952881;29;20065;-84
2022/05/02 13:42:51;;;;;;;2.17;1.80;;;;;;;;;;4953660;28;20505;-83
2022/05/02 13:45:19;;;;;;;2.83;1.50;;;;;;;;;;4953899;29;20034;-85
2022/05/02 13:47:54;;;;;;;2.97;2.25;;;;;;;;;;4954134;29;20035;-85
2022/05/02 13:50:23;;;;;;;4.13;1.75;;;;;;;;;;4952383;29;20027;-85
2022/05/02 13:53:02;;;;;;;1.63;1.50;;;;;;;;;;4952541;29;20028;-84
2022/05/02 13:55:54;;;;;;;2.50;1.60;;;;;;;;;;4952064;28;20031;-84
2022/05/02 13:58:33;;;;;;;8.32;2.90;;;;;;;;;;4950427;28;20085;-87
2022/05/02 14:01:28;;;;;;;6.18;2.88;;;;;;;;;;4952454;28;20075;-87
2022/05/02 14:04:02;;;;;;;5.83;2.27;;;;;;;;;;4937601;29;20043;-85
2022/05/02 14:06:34;;;;;;;6.35;2.20;;;;;;;;;;4952162;29;20269;-85
2022/05/02 14:09:01;;;;;;;5.18;2.20;;;;;;;;;;4937292;29;20110;-84
2022/05/02 14:11:28;;;;;;;6.50;2.08;;;;;;;;;;4936765;28;20541;-84
2022/05/02 14:14:06;;;;;;;10.77;2.33;;;;;;;;;;4953397;28;20086;-86
2022/05/02 14:16:35;;;;;;;3.05;2.25;;;;;;;;;;4956041;28;20038;-84
2022/05/02 14:19:01;;;;;;;4.10;1.92;;;;;;;;;;4956383;29;20038;-81
2022/05/02 14:21:29;;;;;;;4.78;2.00;;;;;;;;;;4940492;29;20529;-82
2022/05/02 14:23:57;;;;;;;4.28;2.00;;;;;;;;;;4956701;28;20537;-83
2022/05/02 14:26:27;;;;;;;5.55;1.90;;;;;;;;;;4956131;29;20500;-83
2022/05/02 14:28:54;;;;;;;4.35;1.90;;;;;;;;;;4955737;29;20027;-83
2022/05/02 14:31:21;;;;;;;6.13;2.45;;;;;;;;;;4940482;29;20035;-84
2022/05/02 14:33:48;;;;;;;4.13;1.85;;;;;;;;;;4939922;29;20050;-83
2022/05/02 14:36:15;;;;;;;2.08;1.55;;;;;;;;;;4923807;29;20078;-84
2022/05/02 14:38:41;;;;;;;3.75;2.15;;;;;;;;;;4971649;28;20034;-83
2022/05/02 14:41:08;;;;;;;4.47;2.20;;;;;;;;;;4955155;28;20170;-82
2022/05/02 14:43:34;;;;;;;2.80;1.80;;;;;;;;;;4923466;29;20030;-83
2022/05/02 14:46:01;;;;;;;3.05;2.08;;;;;;;;;;4956739;28;20027;-83
2022/05/02 14:48:27;;;;;;;3.42;2.33;;;;;;;;;;4940256;29;20114;-83
2022/05/02 14:51:20;;;;;;;3.83;2.20;;;;;;;;;;4955765;29;20071;-82
2022/05/02 14:53:47;;;;;;;6.68;2.40;;;;;;;;;;4953586;28;20405;-83
2022/05/02 14:56:14;;;;;;;4.13;2.30;;;;;;;;;;4957075;29;20186;-83
2022/05/02 14:58:44;;;;;;;2.67;1.92;;;;;;;;;;4955842;29;20067;-84
2022/05/02 15:01:13;;;;;;;3.55;2.50;;;;;;;;;;4955419;29;20111;-83
2022/05/02 15:03:47;;;;;;;4.78;1.70;;;;;;;;;;4955859;28;20039;-82
2022/05/02 15:06:18;;;;;;;3.03;2.00;;;;;;;;;;4939749;29;20038;-83
2022/05/02 15:10:11;;;;;;;2.40;1.85;;;;;;;;;;4939499;29;20042;-82
2022/05/02 15:12:12;;;;;;;3.22;1.88;;;;;;;;;;4935114;29;20391;-83
2022/05/02 15:14:38;;;;;;;2.10;1.90;;;;;;;;;;4919605;29;20038;-82
2022/05/02 15:17:18;;;;;;;5.28;2.25;;;;;;;;;;4918954;29;20039;-83
2022/05/02 15:19:51;;;;;;;2.70;2.05;;;;;;;;;;4934586;29;20035;-84
2022/05/02 15:22:33;;;;;;;3.40;2.05;;;;;;;;;;4934580;28;20058;-83
2022/05/02 15:25:10;;;;;;;4.30;2.47;;;;;;;;;;4918860;29;20387;-84
2022/05/02 15:36:40;;;;;;;5.53;2.58;;;;;;;;;;4934496;29;20066;-83
2022/05/02 15:39:32;;;;;;;2.88;2.10;;;;;;;;;;4934359;29;20038;-84
2022/05/02 15:42:09;;;;;;;1.90;1.70;;;;;;;;;;4931956;29;20044;-84
2022/05/02 15:44:37;;;;;;;2.20;1.90;;;;;;;;;;4955630;29;20465;-84
2022/05/02 15:47:06;;;;;;;1.95;1.75;;;;;;;;;;4954052;29;20113;-84
2022/05/02 15:49:34;;;;;;;3.28;2.22;;;;;;;;;;4954042;29;20035;-84
2022/05/02 15:52:08;;;;;;;3.40;2.30;;;;;;;;;;4954309;29;20075;-84
2022/05/02 15:54:43;;;;;;;2.25;1.83;;;;;;;;;;4954085;29;20058;-84
2022/05/02 15:57:11;;;;;;;2.53;2.00;;;;;;;;;;4955009;29;20051;-84